createdAt,value
2018-12-17T00:00:45.449Z,2.00
2018-12-17T00:03:15.588Z,2.00
2018-12-17T00:05:45.537Z,2.00
2018-12-17T00:08:16.673Z,1.90
2018-12-17T00:10:46.654Z,2.00
2018-12-17T00:13:16.685Z,2.10
2018-12-17T00:15:47.120Z,2.00
2018-12-17T00:18:18.028Z,2.10
2018-12-17T00:20:49.863Z,2.10
2018-12-17T00:23:20.407Z,2.10
2018-12-17T00:25:50.412Z,2.10
2018-12-17T00:28:21.160Z,2.20
2018-12-17T00:30:52.537Z,2.10
2018-12-17T00:33:22.476Z,2.10
2018-12-17T00:35:52.569Z,2.00
2018-12-17T00:38:30.905Z,2.00
2018-12-17T00:41:02.337Z,2.10
2018-12-17T00:43:32.718Z,2.10
2018-12-17T00:46:02.813Z,2.10
2018-12-17T00:48:33.336Z,2.20
2018-12-17T00:51:03.116Z,2.20
2018-12-17T00:53:33.387Z,2.10
2018-12-17T00:56:03.827Z,2.20
2018-12-17T00:58:34.014Z,2.10
2018-12-17T01:01:05.416Z,2.10
2018-12-17T01:03:37.417Z,2.10
2018-12-17T01:06:07.660Z,2.10
2018-12-17T01:08:38.673Z,2.10
2018-12-17T01:11:09.949Z,2.20
2018-12-17T01:13:40.394Z,2.30
2018-12-17T01:16:10.835Z,2.30
2018-12-17T01:18:41.459Z,2.30
2018-12-17T01:21:12.136Z,2.40
2018-12-17T01:23:42.422Z,2.40
2018-12-17T01:26:12.389Z,2.40
2018-12-17T01:28:42.753Z,2.30
2018-12-17T01:31:13.773Z,2.20
2018-12-17T01:33:43.857Z,2.20
2018-12-17T01:36:14.353Z,2.30
2018-12-17T01:38:44.251Z,2.30
2018-12-17T01:41:14.249Z,2.30
2018-12-17T01:43:44.025Z,2.30
2018-12-17T01:46:14.487Z,2.30
2018-12-17T01:48:44.700Z,2.30
2018-12-17T01:51:14.809Z,2.30
2018-12-17T01:53:45.070Z,2.30
2018-12-17T01:56:15.150Z,2.30
2018-12-17T01:58:45.545Z,2.20
2018-12-17T02:01:15.466Z,2.40
2018-12-17T02:03:45.372Z,2.30
2018-12-17T02:06:15.575Z,2.30
2018-12-17T02:08:45.704Z,2.30
2018-12-17T02:11:15.871Z,2.30
2018-12-17T02:13:45.943Z,2.30
2018-12-17T02:16:16.410Z,2.40
2018-12-17T02:18:47.025Z,2.50
2018-12-17T02:21:16.882Z,2.50
2018-12-17T02:23:47.339Z,2.40
2018-12-17T02:26:17.711Z,2.40
2018-12-17T02:28:47.435Z,2.40
2018-12-17T02:31:17.561Z,2.40
2018-12-17T02:33:47.740Z,2.50
2018-12-17T02:36:17.672Z,2.50
2018-12-17T02:38:48.196Z,2.50
2018-12-17T02:41:18.419Z,2.50
2018-12-17T02:43:48.482Z,2.50
2018-12-17T02:46:18.862Z,2.50
2018-12-17T02:48:48.779Z,2.50
2018-12-17T02:51:18.687Z,2.50
2018-12-17T02:53:48.605Z,2.50
2018-12-17T02:56:18.447Z,2.50
2018-12-17T02:58:48.606Z,2.50
2018-12-17T03:01:18.655Z,2.60
2018-12-17T03:03:48.603Z,2.60
2018-12-17T03:06:18.908Z,2.60
2018-12-17T03:08:49.364Z,2.60
2018-12-17T03:11:19.147Z,2.60
2018-12-17T03:13:49.080Z,2.60
2018-12-17T03:16:19.152Z,2.60
2018-12-17T03:18:49.018Z,2.60
2018-12-17T03:21:18.992Z,2.60
2018-12-17T03:23:49.692Z,2.60
2018-12-17T03:26:19.540Z,2.60
2018-12-17T03:28:51.869Z,2.60
2018-12-17T03:31:21.865Z,2.60
2018-12-17T03:33:51.749Z,2.60
2018-12-17T03:36:21.554Z,2.60
2018-12-17T03:38:51.852Z,2.60
2018-12-17T03:41:21.805Z,2.60
2018-12-17T03:43:51.660Z,2.60
2018-12-17T03:46:21.842Z,2.60
2018-12-17T03:48:52.495Z,2.60
2018-12-17T03:51:22.638Z,2.60
2018-12-17T03:53:53.090Z,2.70
2018-12-17T03:56:22.819Z,2.70
2018-12-17T03:58:59.211Z,2.60
2018-12-17T04:01:26.121Z,2.60
2018-12-17T04:03:55.986Z,2.60
2018-12-17T04:06:26.090Z,2.60
2018-12-17T04:08:56.412Z,2.60
2018-12-17T04:11:26.447Z,2.60
2018-12-17T04:13:56.156Z,2.60
2018-12-17T04:16:26.733Z,2.60
2018-12-17T04:18:56.797Z,2.70
2018-12-17T04:21:26.721Z,2.70
2018-12-17T04:23:56.680Z,2.60
2018-12-17T04:26:26.954Z,2.60
2018-12-17T04:28:56.829Z,2.60
2018-12-17T04:31:28.385Z,2.60
2018-12-17T04:33:58.163Z,2.70
2018-12-17T04:36:28.537Z,2.70
2018-12-17T04:38:58.546Z,2.70
2018-12-17T04:41:28.891Z,2.70
2018-12-17T04:43:58.716Z,2.70
2018-12-17T04:46:28.728Z,2.70
2018-12-17T04:48:59.224Z,2.70
2018-12-17T04:51:29.349Z,2.70
2018-12-17T04:53:59.465Z,2.70
2018-12-17T04:56:29.365Z,2.60
2018-12-17T04:58:59.135Z,2.70
2018-12-17T05:01:29.023Z,2.80
2018-12-17T05:03:59.394Z,2.80
2018-12-17T05:06:29.504Z,2.70
2018-12-17T05:08:59.191Z,2.80
2018-12-17T05:11:30.652Z,2.80
2018-12-17T05:14:00.775Z,2.60
2018-12-17T05:16:31.245Z,2.70
2018-12-17T05:19:01.964Z,2.70
2018-12-17T05:21:32.263Z,2.60
2018-12-17T05:24:02.274Z,2.70
2018-12-17T05:26:32.386Z,2.70
2018-12-17T05:29:02.588Z,2.70
2018-12-17T05:31:32.435Z,2.70
2018-12-17T05:34:03.053Z,2.70
2018-12-17T05:36:33.473Z,2.70
2018-12-17T05:39:04.908Z,2.70
2018-12-17T05:41:34.681Z,2.70
2018-12-17T05:44:04.891Z,2.70
2018-12-17T05:46:35.826Z,2.60
2018-12-17T05:49:05.958Z,2.60
2018-12-17T05:51:36.797Z,2.60
2018-12-17T05:54:07.041Z,2.60
2018-12-17T05:56:36.980Z,2.60
2018-12-17T05:59:07.529Z,2.70
2018-12-17T06:01:37.967Z,2.70
2018-12-17T06:04:09.144Z,2.70
2018-12-17T06:06:39.427Z,2.70
2018-12-17T06:09:12.724Z,2.70
2018-12-17T06:11:43.928Z,2.70
2018-12-17T06:14:14.204Z,2.60
2018-12-17T06:16:45.232Z,2.60
2018-12-17T06:19:18.914Z,2.60
2018-12-17T06:21:48.729Z,2.60
2018-12-17T06:24:18.860Z,2.70
2018-12-17T06:26:49.663Z,2.60
2018-12-17T06:29:20.901Z,2.60
2018-12-17T06:31:51.520Z,2.60
2018-12-17T06:34:22.478Z,2.60
2018-12-17T06:36:54.938Z,2.70
2018-12-17T06:39:25.351Z,2.70
2018-12-17T06:41:56.215Z,2.70
2018-12-17T06:44:26.292Z,2.70
2018-12-17T06:46:58.062Z,2.80
2018-12-17T06:49:28.384Z,2.80
2018-12-17T06:51:58.981Z,2.80
2018-12-17T06:54:29.233Z,2.80
2018-12-17T06:56:59.392Z,2.80
2018-12-17T06:59:29.325Z,2.80
2018-12-17T07:02:10.807Z,2.90
2018-12-17T07:04:41.123Z,2.90
2018-12-17T07:07:11.910Z,2.90
2018-12-17T07:09:42.304Z,3.00
2018-12-17T07:12:12.976Z,3.00
2018-12-17T07:14:44.024Z,2.90
2018-12-17T07:17:14.304Z,2.90
2018-12-17T07:19:44.296Z,3.00
2018-12-17T07:22:14.343Z,3.10
2018-12-17T07:24:44.067Z,3.00
2018-12-17T07:27:15.116Z,3.00
2018-12-17T07:29:49.795Z,3.10
2018-12-17T07:32:18.733Z,3.00
2018-12-17T07:34:50.240Z,3.00
2018-12-17T07:37:21.363Z,3.10
2018-12-17T07:39:51.712Z,2.90
2018-12-17T07:42:23.291Z,3.00
2018-12-17T07:44:53.479Z,3.00
2018-12-17T07:47:25.835Z,3.00
2018-12-17T07:49:56.443Z,3.00
2018-12-17T07:52:27.419Z,3.10
2018-12-17T07:54:58.942Z,3.10
2018-12-17T07:57:32.110Z,3.10
2018-12-17T08:00:02.095Z,3.10
2018-12-17T08:02:32.599Z,3.10
2018-12-17T08:05:03.604Z,3.10
2018-12-17T08:07:35.114Z,3.10
2018-12-17T08:10:07.696Z,3.20
2018-12-17T08:12:39.068Z,3.20
2018-12-17T08:15:10.232Z,3.30
2018-12-17T08:17:40.304Z,3.30
2018-12-17T08:20:12.373Z,3.30
2018-12-17T08:22:44.932Z,3.30
2018-12-17T08:25:16.954Z,3.40
2018-12-17T08:27:48.525Z,3.30
2018-12-17T08:30:18.693Z,3.40
2018-12-17T08:32:49.666Z,3.40
2018-12-17T08:35:19.820Z,3.30
2018-12-17T08:37:49.657Z,3.30
2018-12-17T08:40:22.425Z,3.40
2018-12-17T08:42:54.010Z,3.40
2018-12-17T08:45:24.711Z,3.40
2018-12-17T08:47:54.344Z,3.40
2018-12-17T08:50:25.456Z,3.40
2018-12-17T08:52:56.505Z,3.50
2018-12-17T08:55:27.230Z,3.60
2018-12-17T08:57:57.317Z,3.50
2018-12-17T09:00:27.442Z,3.50
2018-12-17T09:02:59.269Z,3.50
2018-12-17T09:05:30.742Z,3.50
2018-12-17T09:08:00.648Z,3.50
2018-12-17T09:10:31.880Z,3.40
2018-12-17T09:13:02.233Z,3.50
2018-12-17T09:15:32.671Z,3.50
2018-12-17T09:18:02.693Z,3.40
2018-12-17T09:20:32.792Z,3.40
2018-12-17T09:23:05.155Z,3.50
2018-12-17T09:25:36.652Z,3.50
2018-12-17T09:28:07.251Z,3.50
2018-12-17T09:30:41.260Z,3.50
2018-12-17T09:33:11.565Z,3.60
2018-12-17T09:35:43.876Z,3.60
2018-12-17T09:38:14.954Z,3.50
2018-12-17T09:40:45.597Z,3.50
2018-12-17T09:43:16.350Z,3.40
2018-12-17T09:45:47.514Z,3.50
2018-12-17T09:48:17.699Z,3.50
2018-12-17T09:50:49.307Z,3.50
2018-12-17T09:53:20.333Z,3.50
2018-12-17T09:55:50.572Z,3.50
2018-12-17T09:58:20.343Z,3.60
2018-12-17T10:00:51.976Z,3.60
2018-12-17T10:03:22.980Z,3.60
2018-12-17T10:05:53.795Z,3.70
2018-12-17T10:08:26.242Z,3.80
2018-12-17T10:10:56.704Z,3.70
2018-12-17T10:13:26.988Z,3.80
2018-12-17T10:15:58.848Z,3.80
2018-12-17T10:18:36.647Z,3.80
2018-12-17T10:21:04.056Z,3.80
2018-12-17T10:23:34.036Z,3.80
2018-12-17T10:26:05.357Z,3.90
2018-12-17T10:28:35.485Z,3.90
2018-12-17T10:31:05.736Z,3.90
2018-12-17T10:33:36.471Z,4.00
2018-12-17T10:36:07.560Z,4.00
2018-12-17T10:38:37.971Z,4.00
2018-12-17T10:41:09.138Z,4.10
2018-12-17T10:43:42.305Z,4.10
2018-12-17T10:46:12.352Z,4.10
2018-12-17T10:48:43.368Z,4.20
2018-12-17T10:51:13.470Z,4.20
2018-12-17T10:53:44.772Z,4.20
2018-12-17T10:56:17.249Z,4.20
2018-12-17T10:58:47.477Z,4.20
2018-12-17T11:01:23.205Z,4.20
2018-12-17T11:03:59.195Z,4.30
2018-12-17T11:06:29.192Z,4.20
2018-12-17T11:09:02.303Z,4.30
2018-12-17T11:11:34.729Z,4.20
2018-12-17T11:14:06.100Z,4.30
2018-12-17T11:16:38.212Z,4.30
2018-12-17T11:19:08.276Z,4.30
2018-12-17T11:21:39.234Z,4.30
2018-12-17T11:24:09.682Z,4.40
2018-12-17T11:26:39.611Z,4.40
2018-12-17T11:29:10.552Z,4.40
2018-12-17T11:31:41.769Z,4.40
2018-12-17T11:34:11.849Z,4.40
2018-12-17T11:36:42.426Z,4.50
2018-12-17T11:39:12.815Z,4.50
2018-12-17T11:41:42.925Z,4.60
2018-12-17T11:44:13.463Z,4.60
2018-12-17T11:46:44.531Z,4.60
2018-12-17T11:49:15.982Z,4.60
2018-12-17T11:51:46.896Z,4.60
2018-12-17T11:54:18.335Z,4.60
2018-12-17T11:57:00.045Z,4.60
2018-12-17T11:59:30.950Z,4.60
2018-12-17T12:02:16.904Z,4.60
2018-12-17T12:04:48.740Z,4.60
2018-12-17T12:07:20.197Z,4.60
2018-12-17T12:09:51.368Z,4.50
2018-12-17T12:12:22.495Z,4.50
2018-12-17T12:14:54.476Z,4.60
2018-12-17T12:17:27.170Z,4.60
2018-12-17T12:19:57.325Z,4.60
2018-12-17T12:22:29.796Z,4.70
2018-12-17T12:25:01.328Z,4.70
2018-12-17T12:27:32.949Z,4.70
2018-12-17T12:30:04.256Z,4.80
2018-12-17T12:32:34.608Z,4.80
2018-12-17T12:35:06.416Z,4.80
2018-12-17T12:37:37.775Z,4.90
2018-12-17T12:40:10.773Z,4.90
2018-12-17T12:42:40.956Z,4.90
2018-12-17T12:45:13.081Z,4.90
2018-12-17T12:47:43.306Z,4.90
2018-12-17T12:50:14.716Z,5.00
2018-12-17T12:52:45.900Z,4.90
2018-12-17T12:55:17.897Z,5.00
2018-12-17T12:57:49.933Z,5.00
2018-12-17T13:00:20.361Z,5.00
2018-12-17T13:02:51.054Z,5.10
2018-12-17T13:05:22.222Z,5.10
2018-12-17T13:07:54.049Z,5.20
2018-12-17T13:10:25.151Z,5.20
2018-12-17T13:12:55.067Z,5.30
2018-12-17T13:15:26.650Z,5.30
2018-12-17T13:17:56.948Z,5.30
2018-12-17T13:20:27.940Z,5.30
2018-12-17T13:22:59.371Z,5.30
2018-12-17T13:25:39.590Z,5.40
2018-12-17T13:28:10.192Z,5.30
2018-12-17T13:30:43.368Z,5.40
2018-12-17T13:33:15.693Z,5.40
2018-12-17T13:35:49.424Z,5.40
2018-12-17T13:38:20.094Z,5.40
2018-12-17T13:40:50.978Z,5.40
2018-12-17T13:43:24.967Z,5.40
2018-12-17T13:45:57.228Z,5.40
2018-12-17T13:48:27.555Z,5.40
2018-12-17T13:51:01.780Z,5.50
2018-12-17T13:53:34.924Z,5.40
2018-12-17T13:56:05.117Z,5.50
2018-12-17T13:58:36.922Z,5.50
2018-12-17T14:01:07.762Z,5.50
2018-12-17T14:03:39.620Z,5.50
2018-12-17T14:06:10.766Z,5.50
2018-12-17T14:08:40.997Z,5.50
2018-12-17T14:11:12.138Z,5.60
2018-12-17T14:13:42.142Z,5.50
2018-12-17T14:16:15.350Z,5.50
2018-12-17T14:18:54.996Z,5.50
2018-12-17T14:21:31.909Z,5.50
2018-12-17T14:24:02.539Z,5.60
2018-12-17T14:26:33.441Z,5.50
2018-12-17T14:29:06.086Z,5.60
2018-12-17T14:31:36.561Z,5.50
2018-12-17T14:34:06.849Z,5.60
2018-12-17T14:36:37.288Z,5.60
2018-12-17T14:39:11.860Z,5.60
2018-12-17T14:41:43.675Z,5.60
2018-12-17T14:44:20.649Z,5.60
2018-12-17T14:47:00.962Z,5.60
2018-12-17T14:49:31.320Z,5.60
2018-12-17T14:52:02.467Z,5.70
2018-12-17T14:54:32.945Z,5.70
2018-12-17T14:57:04.033Z,5.70
2018-12-17T14:59:35.301Z,5.70
2018-12-17T15:02:13.692Z,5.70
2018-12-17T15:04:45.524Z,5.70
2018-12-17T15:07:17.763Z,5.70
2018-12-17T15:09:50.898Z,5.70
2018-12-17T15:12:21.184Z,5.70
2018-12-17T15:14:51.448Z,5.80
2018-12-17T15:17:21.674Z,5.80
2018-12-17T15:19:54.260Z,5.80
2018-12-17T15:22:25.267Z,5.80
2018-12-17T15:24:57.294Z,5.90
2018-12-17T15:27:27.527Z,5.90
2018-12-17T15:30:01.275Z,6.00
2018-12-17T15:32:32.636Z,6.00
2018-12-17T15:35:03.845Z,6.00
2018-12-17T15:37:35.930Z,6.00
2018-12-17T15:40:09.200Z,6.10
2018-12-17T15:42:42.496Z,6.10
2018-12-17T15:45:13.069Z,6.20
2018-12-17T15:47:43.125Z,6.20
2018-12-17T15:50:13.052Z,6.20
2018-12-17T15:52:44.229Z,6.20
2018-12-17T15:55:15.946Z,6.20
2018-12-17T15:57:47.033Z,6.20
2018-12-17T16:00:17.513Z,6.20
2018-12-17T16:02:48.664Z,6.20
2018-12-17T16:05:19.497Z,6.20
2018-12-17T16:07:52.052Z,6.30
2018-12-17T16:10:22.557Z,6.20
2018-12-17T16:12:53.808Z,6.30
2018-12-17T16:15:24.789Z,6.20
2018-12-17T16:17:55.472Z,6.20
2018-12-17T16:20:25.549Z,6.20
2018-12-17T16:22:56.880Z,6.20
2018-12-17T16:25:28.691Z,6.20
2018-12-17T16:28:00.313Z,6.20
2018-12-17T16:30:31.169Z,6.30
2018-12-17T16:33:01.558Z,6.30
2018-12-17T16:35:31.719Z,6.30
2018-12-17T16:38:03.593Z,6.30
2018-12-17T16:40:37.037Z,6.30
2018-12-17T16:43:07.841Z,6.30
2018-12-17T16:45:38.020Z,6.40
2018-12-17T16:48:08.156Z,6.30
2018-12-17T16:50:40.512Z,6.40
2018-12-17T16:53:11.519Z,6.30
2018-12-17T16:55:43.303Z,6.30
2018-12-17T16:58:15.653Z,6.40
2018-12-17T17:00:51.037Z,6.40
2018-12-17T17:03:22.205Z,6.40
2018-12-17T17:05:53.524Z,6.40
2018-12-17T17:08:26.708Z,6.40
2018-12-17T17:10:58.936Z,6.40
2018-12-17T17:13:31.227Z,6.40
2018-12-17T17:16:03.044Z,6.40
2018-12-17T17:18:34.272Z,6.40
2018-12-17T17:21:06.188Z,6.40
2018-12-17T17:23:36.957Z,6.30
2018-12-17T17:26:11.286Z,6.30
2018-12-17T17:28:41.520Z,6.30
2018-12-17T17:31:14.274Z,6.20
2018-12-17T17:33:45.204Z,6.30
2018-12-17T17:36:15.887Z,6.20
2018-12-17T17:38:47.116Z,6.20
2018-12-17T17:41:17.117Z,6.30
2018-12-17T17:43:48.294Z,6.20
2018-12-17T17:46:19.289Z,6.30
2018-12-17T17:48:50.479Z,6.20
2018-12-17T17:51:20.746Z,6.20
2018-12-17T17:53:51.304Z,6.10
2018-12-17T17:56:22.580Z,6.10
2018-12-17T17:58:52.667Z,6.10
2018-12-17T18:01:24.031Z,6.10
2018-12-17T18:03:54.734Z,6.10
2018-12-17T18:06:26.651Z,6.10
2018-12-17T18:08:58.041Z,6.20
2018-12-17T18:11:29.641Z,6.20
2018-12-17T18:14:00.610Z,6.20
2018-12-17T18:16:33.350Z,6.20
2018-12-17T18:19:05.236Z,6.20
2018-12-17T18:21:35.692Z,6.20
2018-12-17T18:24:06.880Z,6.20
2018-12-17T18:26:38.031Z,6.20
2018-12-17T18:29:08.277Z,6.20
2018-12-17T18:31:40.927Z,6.30
2018-12-17T18:34:11.653Z,6.30
2018-12-17T18:36:42.685Z,6.20
2018-12-17T18:39:16.373Z,6.20
2018-12-17T18:41:49.742Z,6.20
2018-12-17T18:44:21.432Z,6.20
2018-12-17T18:46:51.620Z,6.30
2018-12-17T18:49:22.060Z,6.30
2018-12-17T18:51:52.025Z,6.30
2018-12-17T18:54:23.935Z,6.30
2018-12-17T18:56:55.991Z,6.30
2018-12-17T18:59:27.248Z,6.30
2018-12-17T19:02:05.658Z,6.30
2018-12-17T19:04:35.937Z,6.40
2018-12-17T19:07:06.551Z,6.40
2018-12-17T19:09:38.896Z,6.40
2018-12-17T19:12:17.693Z,6.40
2018-12-17T19:14:56.989Z,6.40
2018-12-17T19:17:29.215Z,6.40
2018-12-17T19:20:00.434Z,6.40
2018-12-17T19:22:30.436Z,6.50
2018-12-17T19:25:01.364Z,6.50
2018-12-17T19:27:32.532Z,6.40
2018-12-17T19:30:03.596Z,6.50
2018-12-17T19:32:40.239Z,6.50
2018-12-17T19:35:07.264Z,6.50
2018-12-17T19:37:38.720Z,6.50
2018-12-17T19:40:10.560Z,6.50
2018-12-17T19:42:42.964Z,6.40
2018-12-17T19:45:14.262Z,6.50
2018-12-17T19:47:48.944Z,6.50
2018-12-17T19:50:20.185Z,6.50
2018-12-17T19:52:53.661Z,6.50
2018-12-17T19:55:25.848Z,6.50
2018-12-17T19:57:56.786Z,6.50
2018-12-17T20:00:28.552Z,6.50
2018-12-17T20:03:00.346Z,6.50
2018-12-17T20:05:33.511Z,6.50
2018-12-17T20:08:05.417Z,6.50
2018-12-17T20:10:35.424Z,6.50
2018-12-17T20:13:06.598Z,6.50
2018-12-17T20:15:39.246Z,6.50
2018-12-17T20:18:12.096Z,6.50
2018-12-17T20:20:43.320Z,6.40
2018-12-17T20:23:14.403Z,6.40
2018-12-17T20:25:45.401Z,6.40
2018-12-17T20:28:15.816Z,6.50
2018-12-17T20:30:46.349Z,6.40
2018-12-17T20:33:18.561Z,6.40
2018-12-17T20:35:48.667Z,6.50
2018-12-17T20:38:19.132Z,6.40
2018-12-17T20:40:50.067Z,6.40
2018-12-17T20:43:21.220Z,6.40
2018-12-17T20:45:52.678Z,6.40
2018-12-17T20:48:22.675Z,6.40
2018-12-17T20:50:54.587Z,6.40
2018-12-17T20:53:25.988Z,6.40
2018-12-17T20:55:56.155Z,6.40
2018-12-17T20:58:29.113Z,6.40
2018-12-17T21:00:59.913Z,6.40
2018-12-17T21:03:31.646Z,6.30
2018-12-17T21:06:03.224Z,6.30
2018-12-17T21:08:35.998Z,6.30
2018-12-17T21:11:08.088Z,6.30
2018-12-17T21:13:40.080Z,6.30
2018-12-17T21:16:12.054Z,6.30
2018-12-17T21:18:41.844Z,6.20
2018-12-17T21:21:12.052Z,6.20
2018-12-17T21:23:42.160Z,6.10
2018-12-17T21:26:13.243Z,6.10
2018-12-17T21:28:43.589Z,6.10
2018-12-17T21:31:13.699Z,6.00
2018-12-17T21:33:44.742Z,6.00
2018-12-17T21:36:17.059Z,6.00
2018-12-17T21:38:47.422Z,6.00
2018-12-17T21:41:17.587Z,6.00
2018-12-17T21:43:47.863Z,5.90
2018-12-17T21:46:19.047Z,6.00
2018-12-17T21:48:50.662Z,5.90
2018-12-17T21:51:21.829Z,5.90
2018-12-17T21:53:53.630Z,6.00
2018-12-17T21:56:24.448Z,6.00
2018-12-17T21:58:55.260Z,6.00
2018-12-17T22:01:25.892Z,6.00
2018-12-17T22:03:57.795Z,6.00
2018-12-17T22:06:27.846Z,6.10
2018-12-17T22:09:01.356Z,6.10
2018-12-17T22:11:31.933Z,6.10
2018-12-17T22:14:02.888Z,6.10
2018-12-17T22:16:34.292Z,6.10
2018-12-17T22:19:05.124Z,6.10
2018-12-17T22:21:35.732Z,6.10
2018-12-17T22:24:05.739Z,6.10
2018-12-17T22:26:36.118Z,6.10
2018-12-17T22:29:07.544Z,6.10
2018-12-17T22:31:39.384Z,6.10
2018-12-17T22:34:09.504Z,6.10
2018-12-17T22:36:39.929Z,6.10
2018-12-17T22:39:10.845Z,6.10
2018-12-17T22:41:41.710Z,6.10
2018-12-17T22:44:12.432Z,6.10
2018-12-17T22:46:42.514Z,6.10
2018-12-17T22:49:13.535Z,6.10
2018-12-17T22:51:46.417Z,6.10
2018-12-17T22:54:16.776Z,6.10
2018-12-17T22:56:47.049Z,6.10
2018-12-17T22:59:16.920Z,6.00
2018-12-17T23:01:51.311Z,6.10
2018-12-17T23:04:23.213Z,6.00
2018-12-17T23:06:53.550Z,6.00
2018-12-17T23:09:22.981Z,6.00
2018-12-17T23:12:09.444Z,6.00
2018-12-17T23:14:51.220Z,6.00
2018-12-17T23:17:32.539Z,6.00
2018-12-17T23:20:03.618Z,6.10
2018-12-17T23:22:36.379Z,6.00
2018-12-17T23:25:07.064Z,6.10
2018-12-17T23:27:37.336Z,6.00
2018-12-17T23:30:10.564Z,6.00
2018-12-17T23:32:40.523Z,6.10
2018-12-17T23:35:12.070Z,6.10
2018-12-17T23:37:42.805Z,6.00
2018-12-17T23:40:13.301Z,6.10
2018-12-17T23:42:44.292Z,6.10
2018-12-17T23:45:19.631Z,6.10
2018-12-17T23:47:50.864Z,6.10
2018-12-17T23:50:22.040Z,6.00
2018-12-17T23:52:52.158Z,6.10
2018-12-17T23:55:21.934Z,6.10
2018-12-17T23:57:53.759Z,6.10
